Terminal Aerodrome Forecast
Issued by NWS

Home | Current Version | Previous Version | Text Only | Print | Product List | Glossary On
Versions: 1 2 3 4 5 6 7 8 9 10 11 12 13
000
FTUS42 KTAE 032333
TAFDHN
TAF
KDHN 032333Z 0400/0424 26010KT P6SM -RA VCTS SCT050CB SCT080 OVC100
      TEMPO 0400/0401 3SM TSRA BR
     FM040100 32005KT P6SM BKN250=

USA.gov is the U.S. government's official web portal to all federal, state and local government web resources and services.